Time;durP1;ratioP1;P1;durP2;ratioP2;P2;SDS_P1;SDS_P2;PMS_P1;PMS_P2;Temp;Humidity;BMP_temperature;BMP_pressure;BME280_temperature;BME280_humidity;BME280_pressure;Samples;Min_cycle;Max_cycle;Signal;HPM_P1;HPM_P2
2022/01/30 00:00:40;;;;;;;;;;;;;;;;;;5013205;28;1906;-77
2022/01/30 00:03:05;;;;;;;;;;;;;;;;;;5014560;28;977;-78
2022/01/30 00:05:31;;;;;;;;;;;;;;;;;;5014100;28;1205;-78
2022/01/30 00:07:56;;;;;;;;;;;;;;;;;;5014327;28;794;-78
2022/01/30 00:10:21;;;;;;;;;;;;;;;;;;5013149;28;823;-77
2022/01/30 00:12:52;;;;;;;;;;;;;;;;;;4994955;28;1025;-78
2022/01/30 00:15:18;;;;;;;;;;;;;;;;;;4994480;28;1263;-78
2022/01/30 00:17:51;;;;;;;;;;;;;;;;;;4994723;28;846;-78
2022/01/30 00:20:21;;;;;;;;;;;;;;;;;;4993783;28;1903;-78
2022/01/30 00:22:53;;;;;;;;;;;;;;;;;;4994407;28;882;-78
2022/01/30 00:25:30;;;;;;;;;;;;;;;;;;4994202;28;1327;-78
2022/01/30 00:28:00;;;;;;;;;;;;;;;;;;4994433;28;886;-78
2022/01/30 00:30:26;;;;;;;;;;;;;;;;;;4993325;28;831;-78
2022/01/30 00:32:52;;;;;;;;;;;;;;;;;;4994305;28;796;-78
2022/01/30 00:35:17;;;;;;;;;;;;;;;;;;4994124;28;1192;-78
2022/01/30 00:37:43;;;;;;;;;;;;;;;;;;4992818;28;945;-78
2022/01/30 00:40:09;;;;;;;;;;;;;;;;;;4994234;28;1975;-76
2022/01/30 00:42:34;;;;;;;;;;;;;;;;;;4993114;28;1001;-76
2022/01/30 00:44:59;;;;;;;;;;;;;;;;;;4993960;28;1177;-76
2022/01/30 00:47:24;;;;;;;;;;;;;;;;;;4994485;28;732;-76
2022/01/30 00:49:49;;;;;;;;;;;;;;;;;;4994033;28;767;-76
2022/01/30 00:52:16;;;;;;;;;;;;;;;;;;4994019;28;1107;-76
2022/01/30 00:54:42;;;;;;;;;;;;;;;;;;4993850;28;1279;-76
2022/01/30 00:57:07;;;;;;;;;;;;;;;;;;4993829;28;997;-76
2022/01/30 00:59:32;;;;;;;;;;;;;;;;;;4992635;28;1969;-76
2022/01/30 01:01:57;;;;;;;;;;;;;;;;;;4992659;28;788;-76
2022/01/30 01:04:23;;;;;;;;;;;;;;;;;;4992708;28;815;-76
2022/01/30 01:06:49;;;;;;;;;;;;;;;;;;4992358;28;1250;-76
2022/01/30 01:09:16;;;;;;;;;;;;;;;;;;4993709;28;834;-76
2022/01/30 01:25:11;;;;;;;;;;;;;;;;;;4993426;28;1244;-78
2022/01/30 01:27:36;;;;;;;;;;;;;;;;;;4993648;28;1053;-78
2022/01/30 01:30:01;;;;;;;;;;;;;;;;;;4993023;28;901;-78
2022/01/30 01:32:26;;;;;;;;;;;;;;;;;;4996564;28;922;-78
2022/01/30 01:34:52;;;;;;;;;;;;;;;;;;4997517;28;1177;-78
2022/01/30 01:37:17;;;;;;;;;;;;;;;;;;4997651;28;1037;-78
2022/01/30 01:39:42;;;;;;;;;;;;;;;;;;4997375;28;1919;-78
2022/01/30 01:42:07;;;;;;;;;;;;;;;;;;4997485;28;796;-78
2022/01/30 01:44:44;;;;;;;;;;;;;;;;;;4997569;28;862;-78
2022/01/30 01:47:09;;;;;;;;;;;;;;;;;;4996477;28;851;-78
2022/01/30 01:49:35;;;;;;;;;;;;;;;;;;4997341;28;895;-78
2022/01/30 01:54:49;;;;;;;;;;;;;;;;;;4997077;28;1196;-78
2022/01/30 01:57:14;;;;;;;;;;;;;;;;;;4995897;28;1104;-79
2022/01/30 01:59:40;;;;;;;;;;;;;;;;;;4995901;28;1973;-79
2022/01/30 02:02:05;;;;;;;;;;;;;;;;;;4996098;28;870;-78
2022/01/30 02:04:30;;;;;;;;;;;;;;;;;;4995940;28;1037;-78
2022/01/30 02:07:41;;;;;;;;;;;;;;;;;;4996788;28;1164;-78
2022/01/30 02:09:47;;;;;;;;;;;;;;;;;;4996779;28;1033;-78
2022/01/30 02:12:20;;;;;;;;;;;;;;;;;;4995747;28;1030;-78
2022/01/30 02:27:48;;;;;;;;;;;;;;;;;;4997015;28;843;-78
2022/01/30 02:30:16;;;;;;;;;;;;;;;;;;4996592;28;788;-79
2022/01/30 02:32:41;;;;;;;;;;;;;;;;;;4996526;28;824;-78
2022/01/30 02:35:07;;;;;;;;;;;;;;;;;;4995025;28;1195;-78
2022/01/30 02:37:32;;;;;;;;;;;;;;;;;;4996814;28;906;-79
2022/01/30 02:39:57;;;;;;;;;;;;;;;;;;4995100;28;1910;-78
2022/01/30 02:42:27;;;;;;;;;;;;;;;;;;4995260;28;885;-78
2022/01/30 02:44:56;;;;;;;;;;;;;;;;;;4996243;28;1189;-78
2022/01/30 02:47:26;;;;;;;;;;;;;;;;;;4996355;28;854;-78
2022/01/30 02:52:34;;;;;;;;;;;;;;;;;;4996245;28;672;-78
2022/01/30 02:54:59;;;;;;;;;;;;;;;;;;4994729;28;1273;-78
2022/01/30 02:57:25;;;;;;;;;;;;;;;;;;4996233;28;842;-78
2022/01/30 02:59:50;;;;;;;;;;;;;;;;;;4995992;28;1935;-78
2022/01/30 03:02:16;;;;;;;;;;;;;;;;;;4996113;28;771;-78
2022/01/30 03:04:41;;;;;;;;;;;;;;;;;;4995902;28;1276;-78
2022/01/30 03:07:06;;;;;;;;;;;;;;;;;;4995926;28;866;-78
2022/01/30 03:09:31;;;;;;;;;;;;;;;;;;4996110;28;803;-78
2022/01/30 03:11:57;;;;;;;;;;;;;;;;;;4995846;28;1061;-78
2022/01/30 03:14:22;;;;;;;;;;;;;;;;;;4995688;28;927;-78
2022/01/30 03:16:47;;;;;;;;;;;;;;;;;;4995414;28;1173;-78
2022/01/30 03:19:12;;;;;;;;;;;;;;;;;;4995683;28;2330;-78
2022/01/30 03:21:37;;;;;;;;;;;;;;;;;;4995684;28;882;-78
2022/01/30 03:24:03;;;;;;;;;;;;;;;;;;4995529;28;820;-78
2022/01/30 03:26:35;;;;;;;;;;;;;;;;;;4995293;28;1196;-78
2022/01/30 03:29:05;;;;;;;;;;;;;;;;;;4995556;28;925;-78
2022/01/30 03:31:30;;;;;;;;;;;;;;;;;;4995557;28;907;-78
2022/01/30 03:33:55;;;;;;;;;;;;;;;;;;4995427;28;851;-78
2022/01/30 03:36:20;;;;;;;;;;;;;;;;;;4995071;28;1264;-78
2022/01/30 03:38:45;;;;;;;;;;;;;;;;;;4995224;28;946;-78
2022/01/30 03:41:11;;;;;;;;;;;;;;;;;;4995164;28;1903;-78
2022/01/30 03:43:36;;;;;;;;;;;;;;;;;;4995333;28;885;-78
2022/01/30 03:46:01;;;;;;;;;;;;;;;;;;4995042;28;1193;-78
2022/01/30 03:48:26;;;;;;;;;;;;;;;;;;4995178;28;959;-78
2022/01/30 03:50:52;;;;;;;;;;;;;;;;;;4995058;28;772;-78
2022/01/30 03:53:17;;;;;;;;;;;;;;;;;;4993528;28;1351;-78
2022/01/30 03:55:42;;;;;;;;;;;;;;;;;;4994636;28;1177;-78
2022/01/30 03:58:07;;;;;;;;;;;;;;;;;;4994957;28;927;-78
2022/01/30 04:00:33;;;;;;;;;;;;;;;;;;4995060;28;1899;-78
2022/01/30 04:02:58;;;;;;;;;;;;;;;;;;4994863;28;858;-78
2022/01/30 04:05:23;;;;;;;;;;;;;;;;;;4994554;28;1184;-78
2022/01/30 04:07:48;;;;;;;;;;;;;;;;;;4994837;28;1045;-78
2022/01/30 04:10:14;;;;;;;;;;;;;;;;;;4994792;28;820;-78
2022/01/30 04:12:39;;;;;;;;;;;;;;;;;;4993468;28;926;-78
2022/01/30 04:15:05;;;;;;;;;;;;;;;;;;4994411;28;1282;-78
2022/01/30 04:17:30;;;;;;;;;;;;;;;;;;4993350;28;1064;-78
2022/01/30 04:19:56;;;;;;;;;;;;;;;;;;4994772;28;1899;-78
2022/01/30 04:22:21;;;;;;;;;;;;;;;;;;4994643;28;780;-78
2022/01/30 04:24:46;;;;;;;;;;;;;;;;;;4994348;28;1275;-78
2022/01/30 04:27:11;;;;;;;;;;;;;;;;;;4994182;28;783;-79
2022/01/30 04:29:36;;;;;;;;;;;;;;;;;;4993459;28;879;-78
2022/01/30 04:32:03;;;;;;;;;;;;;;;;;;4994338;28;1009;-78
2022/01/30 04:34:29;;;;;;;;;;;;;;;;;;4993191;28;857;-78
2022/01/30 04:37:02;;;;;;;;;;;;;;;;;;4992853;28;1272;-78
2022/01/30 04:42:17;;;;;;;;;;;;;;;;;;4994430;28;751;-78
2022/01/30 04:52:07;;;;;;;;;;;;;;;;;;4994401;28;677;-78
2022/01/30 04:53:13;;;;;;;;;;;;;;;;;;4993824;28;968;-78
2022/01/30 04:58:20;;;;;;;;;;;;;;;;;;4994106;28;732;-78
2022/01/30 05:00:56;;;;;;;;;;;;;;;;;;4993969;28;1969;-78
2022/01/30 05:03:38;;;;;;;;;;;;;;;;;;4993915;28;835;-78
2022/01/30 05:06:10;;;;;;;;;;;;;;;;;;4992955;28;1244;-79
2022/01/30 05:08:36;;;;;;;;;;;;;;;;;;4993973;28;894;-78
2022/01/30 05:11:05;;;;;;;;;;;;;;;;;;4993742;28;907;-78
2022/01/30 05:13:32;;;;;;;;;;;;;;;;;;4993752;28;853;-78
2022/01/30 05:15:57;;;;;;;;;;;;;;;;;;4992250;28;1192;-78
2022/01/30 05:18:24;;;;;;;;;;;;;;;;;;4993731;28;973;-78
2022/01/30 05:20:49;;;;;;;;;;;;;;;;;;4993744;28;1903;-78
2022/01/30 05:23:16;;;;;;;;;;;;;;;;;;4992431;28;871;-78
2022/01/30 05:25:42;;;;;;;;;;;;;;;;;;4993504;28;1267;-78
2022/01/30 05:28:08;;;;;;;;;;;;;;;;;;4976199;28;1434;-78
2022/01/30 05:30:34;;;;;;;;;;;;;;;;;;4993618;28;894;-78
2022/01/30 05:32:59;;;;;;;;;;;;;;;;;;4992526;28;796;-78
2022/01/30 05:35:25;;;;;;;;;;;;;;;;;;4992110;28;1251;-78
2022/01/30 05:37:50;;;;;;;;;;;;;;;;;;4993323;28;918;-78
2022/01/30 05:40:15;;;;;;;;;;;;;;;;;;4993442;28;1953;-78
2022/01/30 05:42:41;;;;;;;;;;;;;;;;;;4993754;28;839;-78
2022/01/30 05:47:39;;;;;;;;;;;;;;;;;;4993768;28;1040;-78
2022/01/30 05:50:05;;;;;;;;;;;;;;;;;;4993494;28;874;-78
2022/01/30 05:52:30;;;;;;;;;;;;;;;;;;4993293;28;1025;-78
2022/01/30 05:54:55;;;;;;;;;;;;;;;;;;5005161;28;1296;-78
2022/01/30 05:57:20;;;;;;;;;;;;;;;;;;5012978;28;799;-78
2022/01/30 05:59:45;;;;;;;;;;;;;;;;;;5012993;28;1957;-78
2022/01/30 06:02:11;;;;;;;;;;;;;;;;;;5012908;28;1013;-78
2022/01/30 06:04:36;;;;;;;;;;;;;;;;;;5012992;28;938;-78
2022/01/30 06:07:01;;;;;;;;;;;;;;;;;;5012844;28;895;-78
2022/01/30 06:09:27;;;;;;;;;;;;;;;;;;5012955;28;862;-78
2022/01/30 06:11:52;;;;;;;;;;;;;;;;;;5012803;28;891;-78
2022/01/30 06:14:19;;;;;;;;;;;;;;;;;;5012806;28;941;-78
2022/01/30 06:16:44;;;;;;;;;;;;;;;;;;5012820;28;1224;-78
2022/01/30 06:19:09;;;;;;;;;;;;;;;;;;5015391;28;798;-78
2022/01/30 06:21:34;;;;;;;;;;;;;;;;;;5016382;28;1961;-78
2022/01/30 06:24:00;;;;;;;;;;;;;;;;;;5015002;28;1076;-78
2022/01/30 06:26:25;;;;;;;;;;;;;;;;;;5016229;28;1343;-78
2022/01/30 06:28:50;;;;;;;;;;;;;;;;;;5015043;28;985;-79
2022/01/30 06:31:15;;;;;;;;;;;;;;;;;;5016372;28;810;-78
2022/01/30 06:33:41;;;;;;;;;;;;;;;;;;5016324;28;899;-79
2022/01/30 06:36:06;;;;;;;;;;;;;;;;;;5016086;28;1226;-79
2022/01/30 06:38:31;;;;;;;;;;;;;;;;;;5014742;28;993;-78
2022/01/30 06:40:56;;;;;;;;;;;;;;;;;;5016022;28;1973;-78
2022/01/30 06:43:22;;;;;;;;;;;;;;;;;;5015941;28;874;-78
2022/01/30 06:45:48;;;;;;;;;;;;;;;;;;5015620;28;1200;-78
2022/01/30 06:48:15;;;;;;;;;;;;;;;;;;5014981;28;874;-78
2022/01/30 06:50:41;;;;;;;;;;;;;;;;;;5014668;28;1404;-78
2022/01/30 06:53:06;;;;;;;;;;;;;;;;;;5014570;28;982;-78
2022/01/30 06:55:31;;;;;;;;;;;;;;;;;;5015450;28;1212;-78
2022/01/30 06:57:56;;;;;;;;;;;;;;;;;;5015863;28;890;-78
2022/01/30 07:00:21;;;;;;;;;;;;;;;;;;5015747;28;1906;-78
2022/01/30 07:02:46;;;;;;;;;;;;;;;;;;5015629;28;938;-78
2022/01/30 07:05:12;;;;;;;;;;;;;;;;;;5015255;28;1176;-78
2022/01/30 07:07:37;;;;;;;;;;;;;;;;;;5015460;28;804;-79
2022/01/30 07:10:04;;;;;;;;;;;;;;;;;;5014376;28;866;-79
2022/01/30 07:12:29;;;;;;;;;;;;;;;;;;5014166;28;1178;-78
2022/01/30 07:14:55;;;;;;;;;;;;;;;;;;5015189;28;1188;-79
2022/01/30 07:17:20;;;;;;;;;;;;;;;;;;5015671;28;1052;-78
2022/01/30 07:19:45;;;;;;;;;;;;;;;;;;5015194;28;1968;-78
2022/01/30 07:22:10;;;;;;;;;;;;;;;;;;5015274;28;997;-78
2022/01/30 07:24:35;;;;;;;;;;;;;;;;;;5015129;28;874;-78
2022/01/30 07:27:01;;;;;;;;;;;;;;;;;;5013776;28;1311;-78
2022/01/30 07:29:26;;;;;;;;;;;;;;;;;;5014552;28;875;-78
2022/01/30 07:31:51;;;;;;;;;;;;;;;;;;5015110;28;839;-79
2022/01/30 07:34:16;;;;;;;;;;;;;;;;;;5015005;28;874;-79
2022/01/30 07:36:42;;;;;;;;;;;;;;;;;;5013440;28;1208;-79
2022/01/30 07:39:08;;;;;;;;;;;;;;;;;;5013652;28;851;-78
2022/01/30 07:41:34;;;;;;;;;;;;;;;;;;5014885;28;1898;-78
2022/01/30 07:43:59;;;;;;;;;;;;;;;;;;5014838;28;807;-79
2022/01/30 07:46:25;;;;;;;;;;;;;;;;;;5013359;28;1283;-79
2022/01/30 07:48:50;;;;;;;;;;;;;;;;;;5013455;28;1264;-79
2022/01/30 07:51:15;;;;;;;;;;;;;;;;;;5014752;28;911;-79
2022/01/30 07:53:40;;;;;;;;;;;;;;;;;;5014609;28;709;-78
2022/01/30 07:56:05;;;;;;;;;;;;;;;;;;5014253;28;1196;-79
2022/01/30 07:58:30;;;;;;;;;;;;;;;;;;5014536;28;787;-78
2022/01/30 08:00:56;;;;;;;;;;;;;;;;;;5013498;28;1898;-78
2022/01/30 08:03:22;;;;;;;;;;;;;;;;;;5014520;28;871;-78
2022/01/30 08:05:47;;;;;;;;;;;;;;;;;;5014055;28;1153;-78
2022/01/30 08:08:13;;;;;;;;;;;;;;;;;;5014675;28;842;-79
2022/01/30 08:10:38;;;;;;;;;;;;;;;;;;5014544;28;869;-78
2022/01/30 08:13:03;;;;;;;;;;;;;;;;;;5013154;28;922;-78
2022/01/30 08:15:28;;;;;;;;;;;;;;;;;;5013820;28;1181;-78
2022/01/30 08:17:54;;;;;;;;;;;;;;;;;;5013221;28;957;-78
2022/01/30 08:20:20;;;;;;;;;;;;;;;;;;5014119;28;1902;-78
2022/01/30 08:22:49;;;;;;;;;;;;;;;;;;5014247;28;861;-78
2022/01/30 08:25:15;;;;;;;;;;;;;;;;;;5013786;28;1189;-78
2022/01/30 08:27:41;;;;;;;;;;;;;;;;;;5012939;28;788;-78
2022/01/30 08:30:06;;;;;;;;;;;;;;;;;;5013977;28;866;-78
2022/01/30 08:32:31;;;;;;;;;;;;;;;;;;5013007;28;926;-78
2022/01/30 08:34:57;;;;;;;;;;;;;;;;;;5013583;28;1279;-77
2022/01/30 08:37:22;;;;;;;;;;;;;;;;;;5012782;28;803;-78
2022/01/30 08:39:47;;;;;;;;;;;;;;;;;;5012847;28;1898;-78
2022/01/30 08:42:12;;;;;;;;;;;;;;;;;;5012766;28;915;-78
2022/01/30 08:44:38;;;;;;;;;;;;;;;;;;5013699;28;1180;-78
2022/01/30 08:47:03;;;;;;;;;;;;;;;;;;5013727;28;808;-78
2022/01/30 08:49:29;;;;;;;;;;;;;;;;;;5013708;28;954;-79
2022/01/30 08:51:54;;;;;;;;;;;;;;;;;;5013680;28;941;-78
2022/01/30 08:54:19;;;;;;;;;;;;;;;;;;5013761;28;846;-78
2022/01/30 08:56:44;;;;;;;;;;;;;;;;;;5013168;28;1326;-78
2022/01/30 08:59:09;;;;;;;;;;;;;;;;;;5012444;28;839;-79
2022/01/30 09:01:35;;;;;;;;;;;;;;;;;;5013477;28;1893;-79
2022/01/30 09:04:00;;;;;;;;;;;;;;;;;;5013569;28;878;-79
2022/01/30 09:06:25;;;;;;;;;;;;;;;;;;5013153;28;1193;-78
2022/01/30 09:08:50;;;;;;;;;;;;;;;;;;5013558;28;965;-78
2022/01/30 09:11:15;;;;;;;;;;;;;;;;;;5013391;28;861;-78
2022/01/30 09:13:41;;;;;;;;;;;;;;;;;;5012254;28;1022;-78
2022/01/30 09:16:06;;;;;;;;;;;;;;;;;;5013238;28;1286;-78
2022/01/30 09:18:31;;;;;;;;;;;;;;;;;;5013642;28;1088;-78
2022/01/30 09:20:56;;;;;;;;;;;;;;;;;;5013183;28;1906;-78
2022/01/30 09:23:22;;;;;;;;;;;;;;;;;;4995793;28;969;-78
2022/01/30 09:25:47;;;;;;;;;;;;;;;;;;5012970;28;1212;-78
2022/01/30 09:28:12;;;;;;;;;;;;;;;;;;5012114;28;1106;-78
2022/01/30 09:30:37;;;;;;;;;;;;;;;;;;5013396;28;888;-78
2022/01/30 09:33:03;;;;;;;;;;;;;;;;;;5013362;28;792;-78
2022/01/30 09:35:28;;;;;;;;;;;;;;;;;;5012813;28;1188;-78
2022/01/30 09:37:53;;;;;;;;;;;;;;;;;;5013016;28;1016;-78
2022/01/30 09:40:18;;;;;;;;;;;;;;;;;;5011855;28;1906;-78
2022/01/30 09:42:45;;;;;;;;;;;;;;;;;;5013288;28;850;-78
2022/01/30 09:45:11;;;;;;;;;;;;;;;;;;5013010;28;1213;-78
2022/01/30 09:47:36;;;;;;;;;;;;;;;;;;5013007;28;1032;-78
2022/01/30 09:50:02;;;;;;;;;;;;;;;;;;5011733;28;966;-78
2022/01/30 09:52:27;;;;;;;;;;;;;;;;;;5015954;28;1024;-77
2022/01/30 09:54:52;;;;;;;;;;;;;;;;;;5016667;28;1198;-78
2022/01/30 09:57:17;;;;;;;;;;;;;;;;;;5016662;28;1037;-78
2022/01/30 09:59:42;;;;;;;;;;;;;;;;;;5016728;28;1961;-79
2022/01/30 10:02:08;;;;;;;;;;;;;;;;;;5016860;28;787;-78
2022/01/30 10:04:33;;;;;;;;;;;;;;;;;;5015534;28;807;-78
2022/01/30 10:07:04;;;;;;;;;;;;;;;;;;5016450;28;1323;-78
2022/01/30 10:09:33;;;;;;;;;;;;;;;;;;5016008;28;1012;-78
2022/01/30 10:12:19;;;;;;;;;;;;;;;;;;5015700;28;822;-78
2022/01/30 10:15:03;;;;;;;;;;;;;;;;;;5015380;28;1209;-77
2022/01/30 10:17:39;;;;;;;;;;;;;;;;;;5016541;28;910;-79
2022/01/30 10:20:08;;;;;;;;;;;;;;;;;;5015203;28;1911;-79
2022/01/30 10:22:35;;;;;;;;;;;;;;;;;;5016528;28;854;-78
2022/01/30 10:25:00;;;;;;;;;;;;;;;;;;5016062;28;1181;-78
2022/01/30 10:27:26;;;;;;;;;;;;;;;;;;5016297;28;1076;-79
2022/01/30 10:29:55;;;;;;;;;;;;;;;;;;5015044;28;819;-80
2022/01/30 10:32:21;;;;;;;;;;;;;;;;;;5016548;28;814;-79
2022/01/30 10:34:54;;;;;;;;;;;;;;;;;;5016046;28;1184;-80
2022/01/30 10:37:22;;;;;;;;;;;;;;;;;;5014923;28;917;-79
2022/01/30 10:39:53;;;;;;;;;;;;;;;;;;5014696;28;1973;-78
2022/01/30 10:42:31;;;;;;;;;;;;;;;;;;5016055;28;1115;-79
2022/01/30 10:44:57;;;;;;;;;;;;;;;;;;5015971;28;1298;-79
2022/01/30 10:47:22;;;;;;;;;;;;;;;;;;5014554;28;862;-79
2022/01/30 10:49:48;;;;;;;;;;;;;;;;;;5015925;28;803;-79
2022/01/30 10:52:13;;;;;;;;;;;;;;;;;;5016145;28;942;-79
2022/01/30 10:54:39;;;;;;;;;;;;;;;;;;5014452;28;1182;-79
2022/01/30 10:57:06;;;;;;;;;;;;;;;;;;5015640;28;827;-79
2022/01/30 10:59:31;;;;;;;;;;;;;;;;;;5015798;28;1985;-79
2022/01/30 11:02:09;;;;;;;;;;;;;;;;;;5014414;28;918;-79
2022/01/30 11:04:35;;;;;;;;;;;;;;;;;;5013807;28;925;-78
2022/01/30 11:07:03;;;;;;;;;;;;;;;;;;5015315;28;1200;-79
2022/01/30 11:09:33;;;;;;;;;;;;;;;;;;5015559;28;874;-79
2022/01/30 11:12:05;;;;;;;;;;;;;;;;;;5015778;28;798;-79
2022/01/30 11:17:21;;;;;;;;;;;;;;;;;;5014318;28;673;-79
2022/01/30 11:19:51;;;;;;;;;;;;;;;;;;5015316;28;1894;-79
2022/01/30 11:22:20;;;;;;;;;;;;;;;;;;5015325;28;893;-79
2022/01/30 11:24:50;;;;;;;;;;;;;;;;;;5014139;28;1270;-79
2022/01/30 11:27:16;;;;;;;;;;;;;;;;;;5013789;28;890;-79
2022/01/30 11:29:41;;;;;;;;;;;;;;;;;;5014210;28;867;-78
2022/01/30 11:32:07;;;;;;;;;;;;;;;;;;5015117;28;858;-78
2022/01/30 11:34:33;;;;;;;;;;;;;;;;;;5013913;28;844;-79
2022/01/30 11:36:58;;;;;;;;;;;;;;;;;;5014621;28;1180;-79
2022/01/30 11:39:23;;;;;;;;;;;;;;;;;;5013772;28;884;-78
2022/01/30 11:42:25;;;;;;;;;;;;;;;;;;5014928;28;1981;-79
2022/01/30 11:44:51;;;;;;;;;;;;;;;;;;4954020;29;1300;-78
2022/01/30 11:47:16;;;;;;;;;;;;;;;;;;4997314;28;1366;-79
2022/01/30 11:50:05;;;;;;;;;;;;;;;;;;5014827;28;795;-79
2022/01/30 11:52:47;;;;;;;;;;;;;;;;;;5006572;28;1165;-79
2022/01/30 11:55:31;;;;;;;;;;;;;;;;;;5014462;28;1168;-79
2022/01/30 11:57:56;;;;;;;;;;;;;;;;;;5014634;28;893;-79
2022/01/30 12:00:35;;;;;;;;;;;;;;;;;;5013388;28;1906;-79
2022/01/30 12:03:19;;;;;;;;;;;;;;;;;;5013457;28;827;-79
2022/01/30 12:05:44;;;;;;;;;;;;;;;;;;5014229;28;1234;-79
2022/01/30 12:08:29;;;;;;;;;;;;;;;;;;5014421;28;929;-79
2022/01/30 12:10:54;;;;;;;;;;;;;;;;;;5012892;28;1134;-78
2022/01/30 12:13:35;;;;;;;;;;;;;;;;;;5014496;28;891;-79
2022/01/30 12:16:00;;;;;;;;;;;;;;;;;;5012757;28;1293;-79
2022/01/30 12:18:44;;;;;;;;;;;;;;;;;;5013053;28;1041;-79
2022/01/30 12:21:11;;;;;;;;;;;;;;;;;;5012975;28;1902;-79
2022/01/30 12:23:40;;;;;;;;;;;;;;;;;;5013122;28;826;-79
2022/01/30 12:26:07;;;;;;;;;;;;;;;;;;5012852;28;1275;-79
2022/01/30 12:28:50;;;;;;;;;;;;;;;;;;5012849;28;827;-80
2022/01/30 12:31:25;;;;;;;;;;;;;;;;;;5012896;28;874;-80
2022/01/30 12:33:57;;;;;;;;;;;;;;;;;;5014123;28;842;-79
2022/01/30 12:36:23;;;;;;;;;;;;;;;;;;5012358;28;1226;-79
2022/01/30 12:38:52;;;;;;;;;;;;;;;;;;5012628;28;860;-79
2022/01/30 12:41:19;;;;;;;;;;;;;;;;;;5013842;28;1953;-79
2022/01/30 12:43:44;;;;;;;;;;;;;;;;;;5012706;28;796;-79
2022/01/30 12:46:10;;;;;;;;;;;;;;;;;;5012377;28;1221;-79
2022/01/30 12:48:35;;;;;;;;;;;;;;;;;;5012573;28;874;-79
2022/01/30 12:51:05;;;;;;;;;;;;;;;;;;5013778;28;815;-79
2022/01/30 12:53:32;;;;;;;;;;;;;;;;;;5013723;28;885;-78
2022/01/30 12:55:59;;;;;;;;;;;;;;;;;;5012302;28;1208;-79
2022/01/30 12:58:24;;;;;;;;;;;;;;;;;;5013597;28;894;-79
2022/01/30 13:01:04;;;;;;;;;;;;;;;;;;5012513;28;1906;-79
2022/01/30 13:03:29;;;;;;;;;;;;;;;;;;5012516;28;973;-79
2022/01/30 13:05:54;;;;;;;;;;;;;;;;;;5013322;28;1196;-79
2022/01/30 13:08:19;;;;;;;;;;;;;;;;;;5013430;28;958;-79
2022/01/30 13:10:44;;;;;;;;;;;;;;;;;;5013845;28;795;-79
2022/01/30 13:13:10;;;;;;;;;;;;;;;;;;5013517;28;827;-79
2022/01/30 13:15:38;;;;;;;;;;;;;;;;;;5013083;28;1271;-79
2022/01/30 13:18:03;;;;;;;;;;;;;;;;;;5013363;28;843;-80
2022/01/30 13:20:28;;;;;;;;;;;;;;;;;;5012072;28;1981;-79
2022/01/30 13:22:54;;;;;;;;;;;;;;;;;;5013309;28;827;-79
2022/01/30 13:25:19;;;;;;;;;;;;;;;;;;5011788;28;1158;-79
2022/01/30 13:27:46;;;;;;;;;;;;;;;;;;5011611;28;981;-79
2022/01/30 13:30:14;;;;;;;;;;;;;;;;;;5012148;28;807;-79
2022/01/30 13:32:39;;;;;;;;;;;;;;;;;;5011955;28;1380;-79
2022/01/30 13:35:10;;;;;;;;;;;;;;;;;;5011701;28;1192;-79
2022/01/30 13:37:37;;;;;;;;;;;;;;;;;;5012077;28;898;-79
2022/01/30 13:40:10;;;;;;;;;;;;;;;;;;5011992;28;1903;-79
2022/01/30 13:47:53;;;;;;;;;;;;;;;;;;5010254;28;1085;-79
2022/01/30 13:50:19;;;;;;;;;;;;;;;;;;4993448;28;894;-79
2022/01/30 13:52:45;;;;;;;;;;;;;;;;;;4992291;28;898;-79
2022/01/30 13:55:10;;;;;;;;;;;;;;;;;;4992113;28;1213;-79
2022/01/30 13:57:37;;;;;;;;;;;;;;;;;;4993379;28;816;-80
2022/01/30 14:00:06;;;;;;;;;;;;;;;;;;4993348;28;1883;-80
2022/01/30 14:02:31;;;;;;;;;;;;;;;;;;4992138;28;895;-79
2022/01/30 14:05:16;;;;;;;;;;;;;;;;;;4993030;28;1267;-79
2022/01/30 14:07:42;;;;;;;;;;;;;;;;;;4993120;28;1177;-79
2022/01/30 14:10:07;;;;;;;;;;;;;;;;;;4993411;28;875;-79
2022/01/30 14:12:36;;;;;;;;;;;;;;;;;;4992033;28;870;-79
2022/01/30 14:15:03;;;;;;;;;;;;;;;;;;4993090;28;1205;-79
2022/01/30 14:17:28;;;;;;;;;;;;;;;;;;4991983;28;823;-79
2022/01/30 14:20:03;;;;;;;;;;;;;;;;;;4991923;28;1898;-79
2022/01/30 14:22:33;;;;;;;;;;;;;;;;;;4992019;28;926;-79
2022/01/30 14:25:00;;;;;;;;;;;;;;;;;;4992860;28;1154;-79
2022/01/30 14:27:26;;;;;;;;;;;;;;;;;;4993170;28;878;-79
2022/01/30 14:29:52;;;;;;;;;;;;;;;;;;4993111;28;866;-79
2022/01/30 14:32:20;;;;;;;;;;;;;;;;;;4993187;28;894;-79
2022/01/30 14:34:46;;;;;;;;;;;;;;;;;;4991888;28;1184;-79
2022/01/30 14:37:11;;;;;;;;;;;;;;;;;;4991866;28;957;-80
2022/01/30 14:39:37;;;;;;;;;;;;;;;;;;4995648;28;1898;-79
2022/01/30 14:42:04;;;;;;;;;;;;;;;;;;4996590;28;882;-79
2022/01/30 14:44:29;;;;;;;;;;;;;;;;;;4996547;28;819;-79
2022/01/30 14:46:54;;;;;;;;;;;;;;;;;;4996162;28;1198;-79
2022/01/30 14:49:19;;;;;;;;;;;;;;;;;;4996234;28;820;-79
2022/01/30 14:51:45;;;;;;;;;;;;;;;;;;4996424;28;1001;-79
2022/01/30 14:54:10;;;;;;;;;;;;;;;;;;4995065;28;985;-79
2022/01/30 14:56:35;;;;;;;;;;;;;;;;;;4995931;28;1192;-79
2022/01/30 14:59:00;;;;;;;;;;;;;;;;;;4996083;28;934;-79
2022/01/30 15:01:26;;;;;;;;;;;;;;;;;;4996043;28;1910;-80
2022/01/30 15:03:51;;;;;;;;;;;;;;;;;;4996014;28;882;-80
2022/01/30 15:06:16;;;;;;;;;;;;;;;;;;4995907;28;1257;-79
2022/01/30 15:08:42;;;;;;;;;;;;;;;;;;4995855;28;882;-79
2022/01/30 15:11:07;;;;;;;;;;;;;;;;;;4994762;28;985;-80
2022/01/30 15:13:36;;;;;;;;;;;;;;;;;;4995905;28;966;-80
2022/01/30 15:16:07;;;;;;;;;;;;;;;;;;4995621;28;1192;-79
2022/01/30 15:18:35;;;;;;;;;;;;;;;;;;4995716;28;835;-79
2022/01/30 15:21:00;;;;;;;;;;;;;;;;;;4995849;28;1961;-79
2022/01/30 15:23:26;;;;;;;;;;;;;;;;;;4994460;28;1076;-79
2022/01/30 15:25:51;;;;;;;;;;;;;;;;;;4995476;28;1181;-79
2022/01/30 15:28:16;;;;;;;;;;;;;;;;;;4995635;28;1048;-79
2022/01/30 15:30:41;;;;;;;;;;;;;;;;;;4995646;28;942;-79
2022/01/30 15:33:06;;;;;;;;;;;;;;;;;;4994296;28;874;-79
2022/01/30 15:35:32;;;;;;;;;;;;;;;;;;4995324;28;1263;-79
2022/01/30 15:37:58;;;;;;;;;;;;;;;;;;4994430;28;981;-79
2022/01/30 15:40:24;;;;;;;;;;;;;;;;;;4995325;28;1962;-79
2022/01/30 15:42:49;;;;;;;;;;;;;;;;;;4994268;28;997;-79
2022/01/30 15:50:27;;;;;;;;;;;;;;;;;;4993637;28;670;-79
2022/01/30 15:52:52;;;;;;;;;;;;;;;;;;4995262;28;850;-79
2022/01/30 15:55:18;;;;;;;;;;;;;;;;;;4993714;28;1291;-79
2022/01/30 15:57:43;;;;;;;;;;;;;;;;;;4993957;28;910;-79
2022/01/30 16:00:09;;;;;;;;;;;;;;;;;;4993737;28;1906;-79
2022/01/30 16:02:35;;;;;;;;;;;;;;;;;;4993825;28;862;-79
2022/01/30 16:05:00;;;;;;;;;;;;;;;;;;4994513;28;1228;-79
2022/01/30 16:07:25;;;;;;;;;;;;;;;;;;4994949;28;954;-79
2022/01/30 16:09:52;;;;;;;;;;;;;;;;;;4994837;28;859;-79
2022/01/30 16:12:50;;;;;;;;;;;;;;;;;;4994897;28;835;-79
2022/01/30 16:17:59;;;;;;;;;;;;;;;;;;4994747;28;666;-79
2022/01/30 16:20:25;;;;;;;;;;;;;;;;;;4994407;28;1914;-79
2022/01/30 16:22:50;;;;;;;;;;;;;;;;;;4994826;28;827;-79
2022/01/30 16:25:15;;;;;;;;;;;;;;;;;;4994299;28;1193;-79
2022/01/30 16:27:41;;;;;;;;;;;;;;;;;;4993367;28;895;-79
2022/01/30 16:30:06;;;;;;;;;;;;;;;;;;4994378;28;905;-79
2022/01/30 16:32:32;;;;;;;;;;;;;;;;;;4994675;28;859;-79
2022/01/30 16:34:57;;;;;;;;;;;;;;;;;;4992887;28;1307;-79
2022/01/30 16:37:22;;;;;;;;;;;;;;;;;;4994391;28;1025;-79
2022/01/30 16:39:47;;;;;;;;;;;;;;;;;;4994058;28;1972;-79
2022/01/30 16:42:12;;;;;;;;;;;;;;;;;;4994420;28;961;-79
2022/01/30 16:44:42;;;;;;;;;;;;;;;;;;4992880;28;1181;-78
2022/01/30 16:49:44;;;;;;;;;;;;;;;;;;4993297;28;961;-79
2022/01/30 16:52:09;;;;;;;;;;;;;;;;;;4994215;28;901;-79
2022/01/30 16:54:35;;;;;;;;;;;;;;;;;;4992992;28;970;-78
2022/01/30 16:57:00;;;;;;;;;;;;;;;;;;4992632;28;1315;-79
2022/01/30 16:59:25;;;;;;;;;;;;;;;;;;4993814;28;1036;-79
2022/01/30 17:01:50;;;;;;;;;;;;;;;;;;4992003;28;1969;-79
2022/01/30 17:04:15;;;;;;;;;;;;;;;;;;4993905;28;847;-79
2022/01/30 17:06:41;;;;;;;;;;;;;;;;;;4993758;28;1185;-79
2022/01/30 17:09:23;;;;;;;;;;;;;;;;;;4992682;28;903;-78
2022/01/30 17:11:50;;;;;;;;;;;;;;;;;;4993927;28;917;-79
2022/01/30 17:14:16;;;;;;;;;;;;;;;;;;4992910;28;846;-79
2022/01/30 17:16:41;;;;;;;;;;;;;;;;;;4993715;28;1201;-79
2022/01/30 17:19:06;;;;;;;;;;;;;;;;;;4992627;28;1249;-78
2022/01/30 17:21:32;;;;;;;;;;;;;;;;;;4993450;28;2037;-78
2022/01/30 17:23:57;;;;;;;;;;;;;;;;;;4993855;28;887;-79
2022/01/30 17:26:22;;;;;;;;;;;;;;;;;;4993570;28;1173;-79
2022/01/30 17:28:47;;;;;;;;;;;;;;;;;;4993984;28;907;-79
2022/01/30 17:31:13;;;;;;;;;;;;;;;;;;5006605;28;1042;-78
2022/01/30 17:33:38;;;;;;;;;;;;;;;;;;5013269;28;976;-78
2022/01/30 17:36:03;;;;;;;;;;;;;;;;;;5012939;28;1169;-78
2022/01/30 17:38:30;;;;;;;;;;;;;;;;;;5013155;28;937;-78
2022/01/30 17:40:55;;;;;;;;;;;;;;;;;;5000761;28;1910;-78
2022/01/30 17:43:20;;;;;;;;;;;;;;;;;;4993606;28;827;-78
2022/01/30 17:45:45;;;;;;;;;;;;;;;;;;4993259;28;1201;-78
2022/01/30 17:48:10;;;;;;;;;;;;;;;;;;4993759;28;883;-78
2022/01/30 17:50:36;;;;;;;;;;;;;;;;;;4993396;28;898;-78
2022/01/30 17:53:01;;;;;;;;;;;;;;;;;;4992455;28;861;-78
2022/01/30 17:55:26;;;;;;;;;;;;;;;;;;4993032;28;1195;-78
2022/01/30 17:57:53;;;;;;;;;;;;;;;;;;4993562;28;989;-78
2022/01/30 18:00:18;;;;;;;;;;;;;;;;;;4991987;28;1890;-78
2022/01/30 18:02:44;;;;;;;;;;;;;;;;;;4993436;28;855;-78
2022/01/30 18:05:12;;;;;;;;;;;;;;;;;;4993359;28;1251;-77
2022/01/30 18:07:38;;;;;;;;;;;;;;;;;;4993270;28;866;-77
2022/01/30 18:10:03;;;;;;;;;;;;;;;;;;4991921;28;800;-77
2022/01/30 18:12:28;;;;;;;;;;;;;;;;;;4994398;28;1049;-78
2022/01/30 18:14:54;;;;;;;;;;;;;;;;;;4995573;28;1289;-78